Time;durP1;ratioP1;P1;durP2;ratioP2;P2;SDS_P1;SDS_P2;PMS_P1;PMS_P2;Temp;Humidity;BMP_temperature;BMP_pressure;BME280_temperature;BME280_humidity;BME280_pressure;Samples;Min_cycle;Max_cycle;Signal;HPM_P1;HPM_P2
2022/01/13 00:01:49;;;;;;;52.92;21.42;;;;;;;1.23;100.00;104094.28;4992607;28;20046;-47
2022/01/13 00:04:15;;;;;;;48.75;22.83;;;;;;;1.24;100.00;104096.88;4992135;28;20053;-48
2022/01/13 00:06:41;;;;;;;56.80;22.30;;;;;;;1.28;100.00;104085.63;4992442;28;20450;-51
2022/01/13 00:09:07;;;;;;;49.55;20.73;;;;;;;1.28;100.00;104097.41;4992721;28;20437;-48
2022/01/13 00:11:33;;;;;;;48.80;22.10;;;;;;;1.26;100.00;104093.97;4992794;28;20061;-48
2022/01/13 00:17:07;;;;;;;42.60;18.63;;;;;;;1.31;99.39;104105.25;4994236;28;20038;-49
2022/01/13 00:22:18;;;;;;;53.83;20.48;;;;;;;1.24;99.28;104106.91;4995687;28;20064;-50
2022/01/13 00:24:46;;;;;;;;;;;;;;;1.22;99.81;104106.25;4997171;28;20033;-49
2022/01/13 00:27:13;;;;;;;47.20;21.10;;;;;;;1.16;99.37;104104.16;4996131;28;19974;-49
2022/01/13 00:29:42;;;;;;;56.28;21.08;;;;;;;1.16;100.00;104110.47;4995923;28;20027;-47
2022/01/13 00:32:09;;;;;;;46.97;19.75;;;;;;;1.23;99.84;104114.25;4995469;28;20492;-47
2022/01/13 00:34:34;;;;;;;54.65;21.58;;;;;;;1.27;99.72;104106.59;4995976;28;20050;-45
2022/01/13 00:37:00;;;;;;;55.85;20.50;;;;;;;1.28;99.25;104105.59;4995650;28;20076;-48
2022/01/13 00:39:25;;;;;;;53.47;20.92;;;;;;;1.30;99.92;104097.22;4995740;28;20038;-47
2022/01/13 00:41:51;;;;;;;60.42;22.70;;;;;;;1.29;99.09;104085.47;4995803;28;20535;-46
2022/01/13 00:44:20;;;;;;;55.08;20.95;;;;;;;1.22;99.96;104074.34;4995731;28;20019;-48
2022/01/13 00:46:55;;;;;;;52.47;21.90;;;;;;;1.29;99.81;104074.56;4995363;28;20034;-45
2022/01/13 00:49:20;;;;;;;48.42;20.40;;;;;;;1.29;100.00;104077.28;4996072;28;20073;-46
2022/01/13 00:51:46;;;;;;;47.03;19.88;;;;;;;1.31;99.64;104078.00;4995120;28;20030;-47
2022/01/13 00:54:12;;;;;;;57.58;20.02;;;;;;;1.30;99.81;104078.13;4995898;28;20037;-49
2022/01/13 00:56:38;;;;;;;51.20;20.55;;;;;;;1.24;99.08;104080.50;4995054;28;20055;-47
2022/01/13 00:59:07;;;;;;;47.60;17.05;;;;;;;1.18;98.96;104066.66;4995512;28;20429;-47
2022/01/13 01:01:48;;;;;;;42.63;18.45;;;;;;;1.18;98.88;104061.22;4995409;28;20026;-47
2022/01/13 01:04:14;;;;;;;42.53;17.65;;;;;;;1.16;99.17;104066.84;4995452;28;20034;-47
2022/01/13 01:06:40;;;;;;;50.45;17.80;;;;;;;1.23;98.48;104073.34;4996076;28;20449;-46
2022/01/13 01:09:15;;;;;;;43.33;18.52;;;;;;;1.16;99.07;104074.16;4995057;28;20052;-46
2022/01/13 01:11:43;;;;;;;42.28;18.23;;;;;;;1.13;99.22;104071.75;4994438;28;20240;-47
2022/01/13 01:14:08;;;;;;;40.00;18.80;;;;;;;1.14;98.67;104066.13;4994692;28;20470;-48
2022/01/13 01:16:36;;;;;;;43.15;19.48;;;;;;;1.15;99.39;104073.31;4994610;28;20049;-47
2022/01/13 01:19:07;;;;;;;39.97;18.65;;;;;;;1.16;99.85;104082.31;4995119;28;20018;-47
2022/01/13 01:21:51;;;;;;;37.50;18.17;;;;;;;1.18;98.90;104066.66;4994186;28;20026;-47
2022/01/13 01:24:42;;;;;;;42.80;19.17;;;;;;;1.18;99.04;104088.47;4995085;28;20121;-47
2022/01/13 01:27:15;;;;;;;40.20;17.58;;;;;;;1.20;98.89;104083.72;4994015;28;20548;-47
2022/01/13 01:29:49;;;;;;;48.33;18.67;;;;;;;1.06;99.31;104080.56;4995013;28;20453;-48
2022/01/13 01:32:16;;;;;;;42.45;18.33;;;;;;;0.99;99.60;104073.22;4994059;28;20080;-48
2022/01/13 01:34:55;;;;;;;38.17;17.88;;;;;;;0.95;100.00;104078.13;4994625;28;20030;-47
2022/01/13 01:37:26;;;;;;;47.22;18.73;;;;;;;1.00;100.00;104069.47;4994956;28;20048;-46
2022/01/13 01:39:53;;;;;;;38.20;16.80;;;;;;;0.99;100.00;104075.94;4995123;28;20027;-47
2022/01/13 01:42:21;;;;;;;38.45;17.17;;;;;;;0.97;100.00;104067.06;4994682;28;20041;-46
2022/01/13 01:44:48;;;;;;;43.42;17.83;;;;;;;1.00;100.00;104070.31;4994203;28;20030;-47
2022/01/13 01:47:17;;;;;;;43.55;17.45;;;;;;;1.03;100.00;104074.59;4994371;28;20102;-46
2022/01/13 01:49:47;;;;;;;40.47;17.33;;;;;;;1.01;99.99;104069.31;4994544;28;20037;-50
2022/01/13 01:52:15;;;;;;;48.03;18.48;;;;;;;1.00;100.00;104070.31;4993616;28;20026;-50
2022/01/13 01:54:41;;;;;;;37.63;17.23;;;;;;;0.98;99.76;104069.63;4993287;28;20030;-47
2022/01/13 01:57:07;;;;;;;38.00;17.70;;;;;;;1.00;100.00;104067.59;4993396;28;20193;-48
2022/01/13 01:59:37;;;;;;;42.67;16.63;;;;;;;0.98;100.00;104066.91;4993897;28;20042;-49
2022/01/13 02:02:02;;;;;;;42.08;16.00;;;;;;;0.95;100.00;104071.81;4994341;28;20019;-48
2022/01/13 02:04:28;;;;;;;34.55;16.90;;;;;;;0.88;100.00;104071.63;4993118;28;20037;-48
2022/01/13 02:06:55;;;;;;;45.45;17.52;;;;;;;0.88;100.00;104072.47;4994014;28;20038;-47
2022/01/13 02:09:22;;;;;;;38.72;16.02;;;;;;;0.93;100.00;104078.28;4994351;28;20019;-46
2022/01/13 02:11:53;;;;;;;36.80;16.77;;;;;;;0.85;99.82;104063.78;4992771;28;20026;-46
2022/01/13 02:16:55;;;;;;;36.28;17.05;;;;;;;0.92;100.00;104073.00;4993772;28;20042;-47
2022/01/13 02:19:24;;;;;;;34.10;15.93;;;;;;;0.92;100.00;104075.75;4993766;28;20054;-47
2022/01/13 02:21:50;;;;;;;34.95;15.65;;;;;;;0.99;100.00;104079.53;4993658;28;20026;-47
2022/01/13 02:24:15;;;;;;;35.80;16.45;;;;;;;1.00;100.00;104070.31;4993973;28;20441;-47
2022/01/13 02:26:40;;;;;;;36.75;16.70;;;;;;;0.99;99.59;104076.78;4994092;28;20395;-47
2022/01/13 02:29:05;;;;;;;38.85;17.42;;;;;;;0.97;99.96;104076.09;4994170;28;20033;-49
2022/01/13 02:31:31;;;;;;;35.38;16.40;;;;;;;0.97;100.00;104078.81;4993375;28;20470;-50
2022/01/13 02:33:56;;;;;;;37.10;17.73;;;;;;;0.93;100.00;104072.84;4993659;28;20023;-47
2022/01/13 02:36:23;;;;;;;35.85;16.95;;;;;;;0.96;99.84;104079.84;4992853;28;20364;-50
2022/01/13 02:38:50;;;;;;;31.08;15.85;;;;;;;0.91;100.00;104071.28;4992759;28;20030;-47
2022/01/13 02:41:16;;;;;;;42.78;17.20;;;;;;;0.93;100.00;104075.56;4994044;28;20109;-48
2022/01/13 02:43:43;;;;;;;61.58;19.80;;;;;;;0.86;99.86;104073.63;4993866;28;20061;-47
2022/01/13 02:49:12;;;;;;;38.50;18.05;;;;;;;0.85;100.00;104069.22;4960391;28;20062;-47
2022/01/13 02:51:38;;;;;;;43.65;18.38;;;;;;;0.78;100.00;104072.56;4992959;28;20042;-48
2022/01/13 02:54:05;;;;;;;43.08;17.15;;;;;;;0.76;100.00;104071.03;4993248;28;20041;-50
2022/01/13 02:56:30;;;;;;;46.47;18.95;;;;;;;0.71;100.00;104073.41;4993169;28;20125;-47
2022/01/13 02:58:56;;;;;;;44.95;18.08;;;;;;;0.72;100.00;104073.22;4993171;28;20045;-46
2022/01/13 03:01:22;;;;;;;45.15;18.30;;;;;;;0.72;100.00;104080.53;4993417;28;20045;-47
2022/01/13 03:03:48;;;;;;;45.03;18.38;;;;;;;0.69;100.00;104073.53;4993479;28;20041;-49
2022/01/13 03:06:15;;;;;;;42.35;18.52;;;;;;;0.59;100.00;104070.06;4992952;28;20029;-49
2022/01/13 03:08:46;;;;;;;60.47;19.55;;;;;;;0.57;100.00;104072.94;4992898;28;20553;-48
2022/01/13 03:11:13;;;;;;;46.15;17.67;;;;;;;0.55;100.00;104071.41;4991803;28;20037;-45
2022/01/13 03:13:38;;;;;;;43.20;16.67;;;;;;;0.54;100.00;104067.81;4992074;28;20029;-47
2022/01/13 03:16:08;;;;;;;42.08;17.17;;;;;;;0.54;100.00;104075.16;4992098;28;20023;-47
2022/01/13 03:18:35;;;;;;;40.95;16.65;;;;;;;0.54;100.00;104069.69;4992600;28;20027;-46
2022/01/13 03:21:00;;;;;;;44.58;16.35;;;;;;;0.58;100.00;104071.94;4992995;28;20032;-46
2022/01/13 03:23:26;;;;;;;48.53;17.55;;;;;;;0.61;100.00;104062.59;4992932;28;20030;-45
2022/01/13 03:25:51;;;;;;;41.42;17.20;;;;;;;0.66;100.00;104062.97;4992954;28;20480;-47
2022/01/13 03:28:28;;;;;;;40.53;17.45;;;;;;;0.68;100.00;104060.94;4992958;28;20546;-46
2022/01/13 03:30:54;;;;;;;60.78;17.70;;;;;;;0.66;100.00;104043.91;4993336;28;20058;-46
2022/01/13 03:33:19;;;;;;;107.47;25.85;;;;;;;0.62;100.00;104045.22;4993301;28;20030;-46
2022/01/13 03:35:45;;;;;;;50.30;16.90;;;;;;;0.59;100.00;104046.41;4993286;28;20397;-47
2022/01/13 03:38:10;;;;;;;52.38;16.27;;;;;;;0.56;100.00;104041.28;4992709;28;20023;-48
2022/01/13 03:40:36;;;;;;;53.45;16.65;;;;;;;0.57;100.00;104047.56;4992831;28;20538;-46
2022/01/13 03:43:02;;;;;;;34.80;15.63;;;;;;;0.56;100.00;104045.88;4992478;28;20026;-48
2022/01/13 03:45:28;;;;;;;41.30;15.80;;;;;;;0.59;100.00;104042.81;4993040;28;20033;-47
2022/01/13 03:47:54;;;;;;;35.80;15.23;;;;;;;0.64;100.00;104042.34;4993488;28;20054;-46
2022/01/13 03:50:20;;;;;;;35.65;15.82;;;;;;;0.66;100.00;104037.59;4994936;28;20069;-48
2022/01/13 03:53:03;;;;;;;42.85;15.23;;;;;;;0.63;100.00;104041.50;4996152;28;20022;-47
2022/01/13 03:55:34;;;;;;;54.65;16.80;;;;;;;0.59;100.00;104046.41;4996230;28;20049;-46
2022/01/13 03:58:35;;;;;;;54.78;15.48;;;;;;;0.57;100.00;104042.97;4996333;28;20439;-48
2022/01/13 04:01:58;;;;;;;41.00;16.25;;;;;;;0.58;100.00;104043.81;4996796;28;20030;-47
2022/01/13 04:04:23;;;;;;;35.63;14.85;;;;;;;0.57;100.00;104047.56;4936011;29;20043;-50
2022/01/13 04:06:48;;;;;;;44.53;15.45;;;;;;;0.53;100.00;104044.31;4936208;29;20512;-46
2022/01/13 04:09:44;;;;;;;41.03;15.18;;;;;;;0.47;100.00;104034.06;4971685;28;20035;-50
2022/01/13 04:12:12;;;;;;;44.42;17.38;;;;;;;0.49;100.00;104044.78;4996180;28;20042;-47
2022/01/13 04:14:46;;;;;;;44.08;15.43;;;;;;;0.47;100.00;104040.34;4996031;28;20030;-47
2022/01/13 04:17:14;;;;;;;43.42;15.48;;;;;;;0.48;100.00;104030.31;4995922;28;20118;-47
2022/01/13 04:19:40;;;;;;;37.90;13.82;;;;;;;0.47;100.00;104040.34;4996115;28;20034;-47
2022/01/13 04:22:07;;;;;;;36.38;15.35;;;;;;;0.52;100.00;104033.56;4996712;28;20040;-47
2022/01/13 04:24:33;;;;;;;38.70;15.82;;;;;;;0.50;100.00;104030.16;4996305;28;20033;-46
2022/01/13 04:26:58;;;;;;;39.13;15.20;;;;;;;0.50;100.00;104036.47;4996079;28;20062;-46
2022/01/13 04:29:33;;;;;;;42.90;15.18;;;;;;;0.55;100.00;104034.09;4996165;28;20026;-47
2022/01/13 04:31:58;;;;;;;39.90;15.15;;;;;;;0.58;100.00;104033.78;4996143;28;20030;-49
2022/01/13 04:34:23;;;;;;;41.83;16.23;;;;;;;0.58;100.00;104024.75;4996160;28;20057;-47
2022/01/13 04:36:49;;;;;;;44.78;17.30;;;;;;;0.58;100.00;104022.03;4996187;28;20026;-46
2022/01/13 04:39:16;;;;;;;40.53;16.38;;;;;;;0.57;100.00;104020.31;4996191;28;20433;-47
2022/01/13 04:41:46;;;;;;;42.40;16.27;;;;;;;0.54;100.00;104028.81;4995900;28;20052;-47
2022/01/13 04:44:14;;;;;;;49.75;15.60;;;;;;;0.52;100.00;104031.69;4995289;28;20042;-48
2022/01/13 04:46:40;;;;;;;45.38;17.02;;;;;;;0.44;100.00;104021.63;4996199;28;20072;-49
2022/01/13 04:49:07;;;;;;;38.35;16.40;;;;;;;0.42;100.00;104020.06;4995763;28;20061;-48
2022/01/13 04:51:33;;;;;;;44.95;17.20;;;;;;;0.44;100.00;104027.06;4995313;28;20023;-50
2022/01/13 04:53:58;;;;;;;47.25;16.50;;;;;;;0.47;100.00;104029.44;4995283;28;20125;-47
2022/01/13 04:59:08;;;;;;;40.30;17.27;;;;;;;0.55;100.00;104031.38;4995387;28;20040;-47
2022/01/13 05:01:35;;;;;;;46.88;16.88;;;;;;;0.55;100.00;104027.81;4994566;28;20031;-48
2022/01/13 05:04:00;;;;;;;44.42;17.67;;;;;;;0.55;100.00;104015.03;4995523;28;20038;-47
2022/01/13 05:06:25;;;;;;;43.08;17.65;;;;;;;0.59;100.00;104032.78;4995118;28;20026;-47
2022/01/13 05:08:51;;;;;;;39.38;17.40;;;;;;;0.60;100.00;104036.34;4995436;28;20058;-48
2022/01/13 05:11:18;;;;;;;44.80;18.50;;;;;;;0.59;100.00;104034.63;4995476;28;20023;-46
2022/01/13 05:13:44;;;;;;;45.40;18.02;;;;;;;0.59;100.00;104034.63;4994764;28;20058;-49
2022/01/13 05:16:19;;;;;;;46.00;18.65;;;;;;;0.60;100.00;104031.78;4995069;28;20109;-46
2022/01/13 05:24:08;;;;;;;41.95;18.70;;;;;;;0.59;100.00;104043.69;4995569;28;20069;-46
2022/01/13 05:26:34;;;;;;;43.08;19.35;;;;;;;0.62;100.00;104032.44;4995221;28;20027;-47
2022/01/13 05:28:59;;;;;;;45.38;18.85;;;;;;;0.63;100.00;104038.75;4994492;28;20026;-46
2022/01/13 05:31:24;;;;;;;52.17;18.83;;;;;;;0.58;100.00;104030.19;4995144;28;20429;-45
2022/01/13 05:33:49;;;;;;;57.70;17.48;;;;;;;0.59;100.00;104034.63;4995248;28;20045;-46
2022/01/13 05:36:15;;;;;;;55.05;18.60;;;;;;;0.59;100.00;104035.50;4995093;28;20037;-46
2022/01/13 05:38:42;;;;;;;50.45;18.38;;;;;;;0.54;100.00;104026.94;4995086;28;20113;-46
2022/01/13 05:41:08;;;;;;;42.67;18.17;;;;;;;0.54;100.00;104026.09;4995185;28;20098;-46
2022/01/13 05:43:33;;;;;;;53.28;19.02;;;;;;;0.53;100.00;104027.13;4995278;28;20035;-47
2022/01/13 05:45:59;;;;;;;50.75;18.02;;;;;;;0.51;100.00;104034.59;4995217;28;20018;-47
2022/01/13 05:48:24;;;;;;;46.45;17.70;;;;;;;0.52;100.00;104039.03;4994629;28;20049;-46
2022/01/13 05:50:50;;;;;;;49.97;18.13;;;;;;;0.52;100.00;104036.28;4993716;28;20481;-46
2022/01/13 05:53:15;;;;;;;53.45;18.58;;;;;;;0.56;100.00;104034.97;4994479;28;20029;-46
2022/01/13 05:55:40;;;;;;;47.38;17.63;;;;;;;0.58;100.00;104030.19;4994410;28;20050;-46
2022/01/13 05:58:07;;;;;;;50.78;19.10;;;;;;;0.54;100.00;104026.94;4994792;28;20046;-47
2022/01/13 06:00:32;;;;;;;54.83;18.20;;;;;;;0.48;100.00;104030.31;4994642;28;20040;-48
2022/01/13 06:02:57;;;;;;;48.80;19.77;;;;;;;0.51;100.00;104024.56;4994849;28;20034;-47
2022/01/13 06:05:23;;;;;;;46.22;17.48;;;;;;;0.49;100.00;104026.59;4994725;28;20114;-47
2022/01/13 06:07:48;;;;;;;49.67;18.63;;;;;;;0.46;100.00;104037.78;4994525;28;20038;-47
2022/01/13 06:10:19;;;;;;;53.78;17.92;;;;;;;0.49;100.00;104029.31;4994582;28;20396;-49
2022/01/13 06:12:48;;;;;;;47.53;18.33;;;;;;;0.52;100.00;104044.47;4993295;28;20022;-49
2022/01/13 06:15:18;;;;;;;52.35;19.83;;;;;;;0.49;100.00;104040.19;4994479;28;20038;-50
2022/01/13 06:17:44;;;;;;;49.17;20.52;;;;;;;0.50;100.00;104043.78;4994238;28;20022;-48
2022/01/13 06:20:12;;;;;;;51.20;19.70;;;;;;;0.48;100.00;104030.31;4994016;28;20026;-47
2022/01/13 06:22:39;;;;;;;56.38;21.75;;;;;;;0.51;100.00;104040.03;4994074;28;20084;-47
2022/01/13 06:25:06;;;;;;;49.38;19.73;;;;;;;0.55;100.00;104028.66;4994168;28;20061;-47
2022/01/13 06:27:31;;;;;;;55.03;20.58;;;;;;;0.52;100.00;104034.41;4994404;28;20512;-45
2022/01/13 06:29:57;;;;;;;46.67;19.88;;;;;;;0.53;100.00;104022.50;4994223;28;20022;-46
2022/01/13 06:32:22;;;;;;;52.40;18.38;;;;;;;0.60;100.00;104028.19;4993518;28;20027;-46
2022/01/13 06:34:49;;;;;;;55.08;20.77;;;;;;;0.61;100.00;104024.44;4993522;28;20077;-48
2022/01/13 06:37:14;;;;;;;48.85;19.10;;;;;;;0.60;100.00;104028.19;4993713;28;20026;-47
2022/01/13 06:39:40;;;;;;;60.13;20.83;;;;;;;0.62;100.00;104026.16;4993793;28;20371;-48
2022/01/13 06:42:05;;;;;;;54.97;19.45;;;;;;;0.64;100.00;104032.31;4994037;28;20022;-47
2022/01/13 06:44:31;;;;;;;59.25;20.17;;;;;;;0.64;100.00;104032.31;4992254;28;20030;-47
2022/01/13 06:46:57;;;;;;;57.13;19.83;;;;;;;0.61;100.00;104019.81;4993345;28;20034;-47
2022/01/13 06:49:22;;;;;;;63.83;19.52;;;;;;;0.64;100.00;104025.97;4992548;28;20065;-49
2022/01/13 06:51:47;;;;;;;59.90;20.55;;;;;;;0.65;100.00;104020.41;4993297;28;20037;-49
2022/01/13 06:54:13;;;;;;;61.05;20.40;;;;;;;0.69;100.00;104018.19;4993945;28;20072;-48
2022/01/13 06:56:38;;;;;;;60.78;19.23;;;;;;;0.72;100.00;104024.19;4992444;28;20062;-46
2022/01/13 06:59:09;;;;;;;61.58;20.05;;;;;;;0.77;100.00;104016.34;4993854;28;20478;-46
2022/01/13 07:01:35;;;;;;;51.53;18.27;;;;;;;0.81;100.00;104021.50;4992565;28;20394;-47
2022/01/13 07:04:00;;;;;;;59.40;19.52;;;;;;;0.87;100.00;104015.38;4993406;28;20030;-47
2022/01/13 07:06:25;;;;;;;60.20;19.73;;;;;;;0.85;100.00;104014.72;4993303;28;20042;-48
2022/01/13 07:08:51;;;;;;;60.95;18.33;;;;;;;0.91;100.00;104014.06;4993361;28;20470;-48
2022/01/13 07:11:16;;;;;;;56.47;19.50;;;;;;;0.97;100.00;104024.28;4993086;28;20037;-48
2022/01/13 07:13:41;;;;;;;55.45;19.70;;;;;;;0.93;100.00;104025.66;4993096;28;20035;-48
2022/01/13 07:16:07;;;;;;;60.85;18.92;;;;;;;0.93;100.00;104031.09;4993332;28;20023;-47
2022/01/13 07:18:39;;;;;;;64.65;19.42;;;;;;;0.95;100.00;104029.06;4993570;28;20552;-49
2022/01/13 07:21:09;;;;;;;56.20;19.15;;;;;;;0.82;100.00;104021.31;4993915;28;20484;-49
2022/01/13 07:23:35;;;;;;;51.75;18.40;;;;;;;0.77;100.00;104016.34;4993698;28;20093;-48
2022/01/13 07:26:02;;;;;;;60.85;18.77;;;;;;;0.80;100.00;104017.06;4996706;28;20082;-48
2022/01/13 07:28:31;;;;;;;45.78;16.95;;;;;;;0.83;100.00;104024.91;4997611;28;20069;-48
2022/01/13 07:30:58;;;;;;;50.17;18.23;;;;;;;0.81;100.00;104027.78;4997608;28;20023;-49
2022/01/13 07:33:23;;;;;;;51.17;18.92;;;;;;;0.83;100.00;104019.47;4997454;28;20022;-52
2022/01/13 07:35:49;;;;;;;52.42;18.92;;;;;;;0.81;100.00;104018.75;4996241;28;20445;-48
2022/01/13 07:38:15;;;;;;;46.08;18.27;;;;;;;0.86;100.00;104017.25;4997447;28;20037;-48
2022/01/13 07:40:40;;;;;;;54.50;19.00;;;;;;;0.87;100.00;104026.28;4997474;28;20026;-46
2022/01/13 07:43:05;;;;;;;47.55;17.75;;;;;;;0.88;100.00;104028.00;4997177;28;20026;-47
2022/01/13 07:45:31;;;;;;;48.65;18.75;;;;;;;0.88;100.00;104014.38;4997234;28;20018;-47
2022/01/13 07:47:56;;;;;;;57.92;17.35;;;;;;;0.97;100.00;104023.44;4997250;28;20023;-47
2022/01/13 07:50:21;;;;;;;53.72;18.33;;;;;;;0.98;100.00;104017.81;4997085;28;20038;-48
2022/01/13 07:52:47;;;;;;;49.33;16.80;;;;;;;0.95;100.00;104026.31;4997214;28;20026;-49
2022/01/13 07:55:13;;;;;;;49.22;17.10;;;;;;;0.89;100.00;104033.31;4997097;28;20029;-47
2022/01/13 07:57:38;;;;;;;48.90;18.55;;;;;;;0.85;100.00;104034.63;4997050;28;20128;-47
2022/01/13 08:00:06;;;;;;;68.18;20.42;;;;;;;0.77;100.00;104031.88;4996968;28;20101;-48
2022/01/13 08:02:32;;;;;;;40.28;17.85;;;;;;;0.81;100.00;104037.84;4997086;28;20030;-50
2022/01/13 08:04:57;;;;;;;50.40;16.75;;;;;;;0.91;100.00;104033.97;4995687;28;20033;-48
2022/01/13 08:07:22;;;;;;;59.10;17.30;;;;;;;0.88;100.00;104042.50;4996756;28;20359;-47
2022/01/13 08:09:47;;;;;;;51.08;17.45;;;;;;;0.90;100.00;104035.00;4996918;28;20019;-47
2022/01/13 08:12:13;;;;;;;48.40;17.92;;;;;;;0.90;100.00;104040.44;4996709;28;20081;-48
2022/01/13 08:14:39;;;;;;;43.17;17.08;;;;;;;0.94;100.00;104038.28;4996919;28;20026;-48
2022/01/13 08:17:07;;;;;;;57.13;17.88;;;;;;;0.96;100.00;104049.00;4996908;28;20489;-47
2022/01/13 08:19:48;;;;;;;54.28;17.05;;;;;;;1.00;100.00;104036.75;4996974;28;20030;-48
2022/01/13 08:22:16;;;;;;;45.83;17.13;;;;;;;1.06;100.00;104047.00;4996678;28;20096;-47
2022/01/13 08:24:42;;;;;;;51.88;17.35;;;;;;;1.04;100.00;104049.03;4996469;28;20018;-47
2022/01/13 08:27:08;;;;;;;40.47;16.73;;;;;;;1.07;100.00;104046.00;4996489;28;20367;-48
2022/01/13 08:29:33;;;;;;;50.15;16.20;;;;;;;1.12;100.00;104056.41;4996931;28;20026;-48
2022/01/13 08:31:59;;;;;;;56.92;15.40;;;;;;;1.13;100.00;104058.13;4996511;28;20481;-47
2022/01/13 08:34:24;;;;;;;46.63;16.15;;;;;;;1.12;100.00;104073.63;4996291;28;20466;-48
2022/01/13 08:36:49;;;;;;;49.35;14.82;;;;;;;1.15;100.00;104064.25;4994015;28;20029;-47
2022/01/13 08:39:15;;;;;;;45.97;16.77;;;;;;;1.18;100.00;104070.22;4996395;28;20029;-47
2022/01/13 08:41:41;;;;;;;50.95;16.00;;;;;;;1.21;100.00;104069.06;4996159;28;20026;-50
2022/01/13 08:44:08;;;;;;;46.58;16.95;;;;;;;1.26;100.00;104072.16;4996154;28;20077;-47
2022/01/13 08:46:33;;;;;;;43.97;16.67;;;;;;;1.22;100.00;104078.97;4996096;28;20109;-48
2022/01/13 08:48:59;;;;;;;46.55;16.20;;;;;;;1.21;100.00;104071.81;4996135;28;20221;-47
2022/01/13 08:51:24;;;;;;;46.28;16.00;;;;;;;1.19;100.00;104065.66;4996037;28;20034;-48
2022/01/13 08:53:49;;;;;;;51.90;16.23;;;;;;;1.16;100.00;104063.22;4995903;28;20053;-49
2022/01/13 08:56:15;;;;;;;49.13;16.35;;;;;;;1.18;100.00;104069.38;4996113;28;20054;-49
2022/01/13 08:58:42;;;;;;;54.67;16.38;;;;;;;1.15;100.00;104072.44;4995979;28;20092;-47
2022/01/13 09:01:07;;;;;;;50.85;16.65;;;;;;;1.13;100.00;104077.22;4996138;28;20022;-48
2022/01/13 09:03:36;;;;;;;49.50;14.95;;;;;;;1.18;100.00;104070.22;4995843;28;20030;-47
2022/01/13 09:06:02;;;;;;;44.97;16.30;;;;;;;1.19;100.00;104069.22;4995860;28;20033;-48
2022/01/13 09:08:27;;;;;;;40.03;17.15;;;;;;;1.22;100.00;104076.25;4995747;28;20030;-47
2022/01/13 09:10:53;;;;;;;47.17;16.15;;;;;;;1.27;100.00;104075.75;4995800;28;20026;-47
2022/01/13 09:13:18;;;;;;;46.95;16.27;;;;;;;1.36;100.00;104078.34;4995682;28;20034;-48
2022/01/13 09:15:49;;;;;;;49.75;15.68;;;;;;;1.38;100.00;104075.44;4995669;28;20027;-49
2022/01/13 09:18:18;;;;;;;53.58;16.50;;;;;;;1.40;100.00;104071.53;4995895;28;20121;-47
2022/01/13 09:20:45;;;;;;;40.78;14.60;;;;;;;1.44;100.00;104077.53;4995612;28;20397;-46
2022/01/13 09:23:12;;;;;;;46.70;14.70;;;;;;;1.45;100.00;104081.09;4995718;28;20057;-46
2022/01/13 09:25:37;;;;;;;43.65;14.40;;;;;;;1.47;100.00;104076.31;4995482;28;20088;-48
2022/01/13 09:28:06;;;;;;;38.03;15.15;;;;;;;1.51;100.00;104078.56;4995480;28;20379;-48
2022/01/13 09:30:31;;;;;;;38.30;14.93;;;;;;;1.56;100.00;104084.38;4995348;28;20038;-48
2022/01/13 09:32:57;;;;;;;42.88;15.00;;;;;;;1.54;100.00;104071.91;4995261;28;20030;-48
2022/01/13 09:35:22;;;;;;;43.67;16.90;;;;;;;1.51;100.00;104075.84;4995432;28;20462;-47
2022/01/13 09:37:48;;;;;;;44.40;16.30;;;;;;;1.51;100.00;104077.72;4994075;28;20101;-47
2022/01/13 09:40:15;;;;;;;39.53;16.33;;;;;;;1.56;100.00;104075.34;4995225;28;20161;-45
2022/01/13 09:42:43;;;;;;;44.65;16.00;;;;;;;1.64;100.00;104083.53;4993910;28;20041;-47
2022/01/13 09:45:10;;;;;;;43.83;14.90;;;;;;;1.59;100.00;104074.16;4995172;28;20023;-48
2022/01/13 09:47:37;;;;;;;39.35;14.73;;;;;;;1.64;100.00;104069.91;4994823;28;20030;-47
2022/01/13 09:50:09;;;;;;;46.22;15.70;;;;;;;1.72;100.00;104080.00;4995364;28;20030;-48
2022/01/13 09:52:34;;;;;;;38.03;15.18;;;;;;;1.76;100.00;104085.97;4993768;28;20057;-47
2022/01/13 09:54:59;;;;;;;40.42;15.88;;;;;;;1.71;100.00;104081.84;4994839;28;20050;-48
2022/01/13 09:57:25;;;;;;;48.80;17.23;;;;;;;1.73;100.00;104083.56;4995107;28;20028;-47
2022/01/13 09:59:50;;;;;;;41.33;17.02;;;;;;;1.75;100.00;104089.72;4995052;28;20058;-49
2022/01/13 10:02:16;;;;;;;53.28;17.05;;;;;;;1.76;100.00;104089.53;4993611;28;20054;-50
2022/01/13 10:04:49;;;;;;;40.13;17.05;;;;;;;1.79;100.00;104080.19;4993899;28;20069;-49
2022/01/13 10:07:30;;;;;;;39.60;16.33;;;;;;;1.79;100.00;104085.66;4995278;28;20035;-48
2022/01/13 10:09:57;;;;;;;43.20;14.77;;;;;;;1.84;100.00;104089.56;4995030;28;20533;-48
2022/01/13 10:12:36;;;;;;;40.10;16.17;;;;;;;1.85;100.00;104095.88;4994743;28;20117;-46
2022/01/13 10:17:30;;;;;;;37.25;14.90;;;;;;;1.87;100.00;104091.97;4994806;28;20060;-49
2022/01/13 10:19:57;;;;;;;37.97;15.10;;;;;;;1.87;100.00;104081.03;4994462;28;20473;-48
2022/01/13 10:22:31;;;;;;;39.17;16.05;;;;;;;1.82;100.00;104079.84;4994774;28;20106;-48
2022/01/13 10:24:58;;;;;;;;;;;;;;;2.00;100.00;104088.75;4995057;28;20133;-47
2022/01/13 10:27:33;;;;;;;46.45;16.30;;;;;;;1.86;100.00;104073.03;4994651;28;19953;-48
2022/01/13 10:30:16;;;;;;;49.72;16.55;;;;;;;1.91;100.00;104061.59;4994212;28;20030;-49
2022/01/13 10:32:45;;;;;;;50.78;17.80;;;;;;;1.91;100.00;104072.53;4994545;28;20080;-49
2022/01/13 10:35:13;;;;;;;48.45;19.33;;;;;;;1.87;100.00;104072.00;4994412;28;20030;-49
2022/01/13 10:37:41;;;;;;;50.75;16.98;;;;;;;1.86;100.00;104073.03;4994384;28;20054;-49
2022/01/13 10:40:13;;;;;;;46.92;17.52;;;;;;;1.81;100.00;104065.34;4994355;28;20080;-48
2022/01/13 10:43:06;;;;;;;47.85;17.88;;;;;;;1.84;100.00;104066.88;4994458;28;20489;-48
2022/01/13 10:45:35;;;;;;;52.70;19.15;;;;;;;1.90;100.00;104062.63;4993987;28;20045;-50
2022/01/13 10:48:07;;;;;;;44.90;20.65;;;;;;;1.99;100.00;104078.00;4994221;28;20030;-46
2022/01/13 10:50:40;;;;;;;39.13;17.23;;;;;;;1.97;100.00;104069.13;4993835;28;20041;-46
2022/01/13 10:53:15;;;;;;;39.97;18.03;;;;;;;1.99;100.00;104067.91;4994009;28;20474;-47
2022/01/13 10:55:52;;;;;;;39.00;15.27;;;;;;;2.09;100.00;104066.91;4994354;28;20077;-46
2022/01/13 10:58:22;;;;;;;42.13;16.55;;;;;;;2.05;100.00;104065.53;4993986;28;20042;-46
2022/01/13 11:00:51;;;;;;;41.97;17.48;;;;;;;2.16;100.00;104063.31;4993219;28;20034;-47
2022/01/13 11:03:19;;;;;;;40.45;17.42;;;;;;;2.12;100.00;104052.91;4993786;28;20497;-47
2022/01/13 11:05:49;;;;;;;42.17;17.40;;;;;;;2.19;100.00;104062.13;4992594;28;20494;-48
2022/01/13 11:08:31;;;;;;;44.35;18.25;;;;;;;2.16;100.00;104051.56;4993910;28;20047;-47
2022/01/13 11:10:59;;;;;;;40.72;18.02;;;;;;;2.15;100.00;104050.69;4993895;28;20026;-47
2022/01/13 11:13:28;;;;;;;46.95;16.80;;;;;;;2.23;100.00;104057.16;4993634;28;20022;-50
2022/01/13 11:15:55;;;;;;;46.75;16.88;;;;;;;2.23;100.00;104051.72;4993641;28;20033;-47
2022/01/13 11:18:29;;;;;;;43.55;18.15;;;;;;;2.14;100.00;104048.13;4993890;28;20113;-47
2022/01/13 11:20:57;;;;;;;41.03;16.88;;;;;;;2.13;100.00;104041.81;4993854;28;20037;-47
2022/01/13 11:23:23;;;;;;;43.80;17.55;;;;;;;2.17;100.00;104034.16;4993932;28;20525;-47
2022/01/13 11:25:52;;;;;;;44.03;17.77;;;;;;;2.18;100.00;104025.78;4993668;28;20105;-47
2022/01/13 11:28:18;;;;;;;41.70;19.48;;;;;;;2.26;100.00;104038.59;4993786;28;20121;-48
2022/01/13 11:30:43;;;;;;;50.80;18.92;;;;;;;2.31;100.00;104036.19;4993732;28;20026;-47
2022/01/13 11:33:09;;;;;;;49.13;20.40;;;;;;;2.41;100.00;104024.22;4993633;28;20470;-48
2022/01/13 11:35:39;;;;;;;42.55;18.48;;;;;;;2.38;100.00;104017.22;4993495;28;20034;-47
2022/01/13 11:38:06;;;;;;;42.72;17.48;;;;;;;2.38;100.00;104019.97;4993589;28;20033;-47